Time;durP1;ratioP1;P1;durP2;ratioP2;P2;SDS_P1;SDS_P2;PMS_P1;PMS_P2;Temp;Humidity;BMP_temperature;BMP_pressure;BME280_temperature;BME280_humidity;BME280_pressure;Samples;Min_cycle;Max_cycle;Signal;HPM_P1;HPM_P2
2023/09/11 00:00:28;;;;;;;0.10;0.10;;;;;;;22.14;66.26;100458.28;7356133;19;20011;-60
2023/09/11 00:02:53;;;;;;;0.10;0.10;;;;;;;22.17;65.78;100468.72;7352541;19;20030;-59
2023/09/11 00:05:19;;;;;;;0.00;0.00;;;;;;;22.08;65.74;100456.91;7360534;19;20033;-60
2023/09/11 00:07:44;;;;;;;0.10;0.10;;;;;;;22.16;66.27;100472.34;7354996;19;20505;-59
2023/09/11 00:10:10;;;;;;;0.10;0.10;;;;;;;22.14;66.04;100469.78;7356438;19;20007;-60
2023/09/11 00:12:35;;;;;;;0.00;0.00;;;;;;;22.08;66.23;100464.03;7357778;19;20098;-59
2023/09/11 00:15:01;;;;;;;0.00;0.00;;;;;;;22.12;66.09;100470.88;7356944;19;20101;-59
2023/09/11 00:17:26;;;;;;;0.00;0.00;;;;;;;22.10;66.49;100470.09;7357403;19;20069;-60
2023/09/11 00:19:53;;;;;;;0.10;0.10;;;;;;;22.09;66.39;100471.06;7354185;19;20454;-59
2023/09/11 00:22:18;;;;;;;0.07;0.07;;;;;;;22.06;66.61;100461.50;7365074;19;20010;-59
2023/09/11 00:24:44;;;;;;;0.10;0.10;;;;;;;22.07;66.33;100473.00;7362551;19;20689;-60
2023/09/11 00:27:09;;;;;;;0.10;0.10;;;;;;;22.08;66.72;100459.56;7354942;19;20002;-59
2023/09/11 00:29:34;;;;;;;0.10;0.10;;;;;;;21.96;66.55;100449.84;7364441;19;20013;-59
2023/09/11 00:32:00;;;;;;;0.10;0.10;;;;;;;22.06;66.45;100466.81;7361458;19;20017;-60
2023/09/11 00:34:26;;;;;;;0.10;0.10;;;;;;;22.04;66.55;100452.78;7364826;19;20923;-61
2023/09/11 00:36:51;;;;;;;0.10;0.10;;;;;;;22.03;66.03;100451.94;7362979;19;20002;-59
2023/09/11 00:39:17;;;;;;;0.10;0.10;;;;;;;22.02;66.28;100458.22;7364362;19;20014;-60
2023/09/11 00:41:43;;;;;;;0.10;0.10;;;;;;;22.01;65.98;100451.22;7357111;19;20030;-59
2023/09/11 00:44:08;;;;;;;0.10;0.10;;;;;;;21.99;66.14;100449.59;7362986;19;20027;-59
2023/09/11 00:46:34;;;;;;;0.05;0.05;;;;;;;22.00;65.71;100461.97;7361274;19;20521;-58
2023/09/11 00:49:00;;;;;;;0.10;0.10;;;;;;;21.96;65.71;100448.03;7363435;19;20014;-60
2023/09/11 00:51:26;;;;;;;0.10;0.10;;;;;;;21.95;65.45;100454.34;7368438;19;20031;-60
2023/09/11 00:53:51;;;;;;;0.10;0.10;;;;;;;21.93;65.17;100445.59;7354698;19;20574;-58
2023/09/11 00:56:17;;;;;;;0.10;0.10;;;;;;;21.91;65.35;100452.00;7366232;19;20002;-60
2023/09/11 00:58:44;;;;;;;0.10;0.10;;;;;;;21.89;65.21;100453.91;7365558;19;20393;-60
2023/09/11 01:01:10;;;;;;;0.10;0.10;;;;;;;21.87;64.93;100459.34;7359821;19;20022;-59
2023/09/11 01:03:36;;;;;;;0.10;0.10;;;;;;;21.84;64.75;100456.06;7359345;19;20027;-60
2023/09/11 01:06:05;;;;;;;0.10;0.10;;;;;;;21.82;64.32;100458.84;7362963;19;20538;-61
2023/09/11 01:08:31;;;;;;;0.03;0.03;;;;;;;21.69;64.29;100436.78;7364152;19;20624;-60
2023/09/11 01:10:57;;;;;;;0.10;0.10;;;;;;;21.76;64.25;100454.84;7359355;19;20109;-60
2023/09/11 01:13:23;;;;;;;0.10;0.10;;;;;;;21.73;64.00;100448.88;7363461;19;20785;-59
2023/09/11 01:16:17;;;;;;;0.08;0.08;;;;;;;21.74;63.14;100455.88;7362480;19;20021;-60
2023/09/11 01:19:16;;;;;;;0.08;0.08;;;;;;;21.70;63.68;100449.13;7368917;19;20009;-59
2023/09/11 01:22:07;;;;;;;0.10;0.10;;;;;;;21.68;63.06;100456.34;7364194;19;20575;-60
2023/09/11 01:24:50;;;;;;;0.03;0.03;;;;;;;21.64;63.94;100454.84;7371656;19;20604;-60
2023/09/11 01:27:18;;;;;;;0.10;0.10;;;;;;;21.60;63.89;100458.72;7362659;19;20011;-59
2023/09/11 01:29:44;;;;;;;0.10;0.10;;;;;;;21.54;64.35;100454.69;7363842;19;20014;-60
2023/09/11 01:32:11;;;;;;;0.10;0.10;;;;;;;21.47;64.12;100458.75;7354246;19;20490;-59
2023/09/11 01:34:36;;;;;;;0.10;0.10;;;;;;;21.44;64.24;100449.22;7364086;19;20461;-59
2023/09/11 01:37:02;;;;;;;0.10;0.10;;;;;;;21.49;64.57;100460.34;7355571;19;20013;-60
2023/09/11 01:39:27;;;;;;;0.10;0.10;;;;;;;21.44;64.34;100454.53;7362258;19;20090;-60
2023/09/11 01:41:58;;;;;;;0.10;0.10;;;;;;;21.48;64.45;100466.59;7358670;19;20055;-59
2023/09/11 01:44:34;;;;;;;0.00;0.00;;;;;;;21.50;63.69;100464.69;7362244;19;20836;-59
2023/09/11 01:47:01;;;;;;;0.10;0.10;;;;;;;21.36;64.54;100440.94;7366058;19;20021;-59
2023/09/11 01:49:27;;;;;;;;;;;;;;;21.49;62.62;100465.66;7362888;19;20036;-59
2023/09/11 01:51:53;;;;;;;0.10;0.10;;;;;;;21.37;64.43;100445.28;7367775;19;19951;-59
2023/09/11 01:54:20;;;;;;;0.00;0.00;;;;;;;21.47;64.30;100458.75;7367628;19;20553;-60
2023/09/11 01:56:46;;;;;;;0.00;0.00;;;;;;;21.45;64.16;100461.53;7363348;19;20090;-60
2023/09/11 01:59:15;;;;;;;0.10;0.10;;;;;;;21.43;64.20;100458.09;7359644;19;20542;-60
2023/09/11 02:01:41;;;;;;;0.10;0.10;;;;;;;21.42;64.24;100461.72;7364086;19;20010;-60
2023/09/11 02:04:07;;;;;;;0.10;0.10;;;;;;;21.43;64.73;100463.41;7366164;19;20078;-60
2023/09/11 02:06:32;;;;;;;0.00;0.00;;;;;;;21.42;64.23;100461.72;7355391;19;20014;-60
2023/09/11 02:08:58;;;;;;;0.10;0.10;;;;;;;21.43;64.77;100471.38;7363396;19;20010;-60
2023/09/11 02:11:23;;;;;;;0.10;0.10;;;;;;;21.42;64.53;100477.66;7362261;19;20010;-60
2023/09/11 02:13:49;;;;;;;0.10;0.10;;;;;;;21.43;64.43;100471.38;7369988;19;20026;-60
2023/09/11 02:16:14;;;;;;;0.10;0.10;;;;;;;21.41;64.56;100473.31;7369027;19;20007;-59
2023/09/11 02:18:40;;;;;;;0.10;0.10;;;;;;;21.40;64.37;100476.94;7361930;19;20106;-60
2023/09/11 02:21:06;;;;;;;0.10;0.10;;;;;;;21.39;64.31;100469.94;7362980;19;20009;-60
2023/09/11 02:23:31;;;;;;;0.10;0.10;;;;;;;21.40;64.21;100474.28;7365719;19;20010;-60
2023/09/11 02:25:57;;;;;;;0.10;0.10;;;;;;;21.39;64.43;100472.59;7367316;19;20007;-59
2023/09/11 02:28:22;;;;;;;0.00;0.00;;;;;;;21.33;64.50;100457.06;7358176;19;19999;-58
2023/09/11 02:30:47;;;;;;;0.10;0.10;;;;;;;21.35;64.16;100460.50;7364506;19;20014;-60
2023/09/11 02:33:13;;;;;;;0.10;0.10;;;;;;;21.37;64.37;100463.88;7369343;19;20689;-60
2023/09/11 02:35:38;;;;;;;0.10;0.10;;;;;;;21.37;64.12;100463.88;7366941;19;20974;-60
2023/09/11 02:38:04;;;;;;;0.00;0.00;;;;;;;21.34;64.22;100458.78;7366220;19;20010;-60
2023/09/11 02:40:29;;;;;;;0.10;0.10;;;;;;;21.31;63.95;100447.53;7358342;19;20047;-60
2023/09/11 02:42:54;;;;;;;0.10;0.10;;;;;;;21.35;63.68;100455.16;7361746;19;20041;-60
2023/09/11 02:45:20;;;;;;;0.10;0.10;;;;;;;21.30;63.52;100451.13;7360473;19;20034;-60
2023/09/11 02:47:45;;;;;;;0.10;0.10;;;;;;;21.32;64.00;100458.03;7363923;19;20015;-60
2023/09/11 02:50:11;;;;;;;0.10;0.10;;;;;;;21.31;63.63;100459.00;7371269;19;20018;-61
2023/09/11 02:52:36;;;;;;;0.10;0.10;;;;;;;21.31;63.51;100460.81;7365829;19;20512;-59
2023/09/11 02:55:02;;;;;;;0.10;0.10;;;;;;;20.99;63.63;100409.00;7357564;19;20019;-59
2023/09/11 02:57:27;;;;;;;0.10;0.10;;;;;;;21.26;63.89;100461.09;7362055;19;20054;-60
2023/09/11 02:59:55;;;;;;;0.00;0.00;;;;;;;21.22;63.56;100449.00;7345509;19;20518;-59
2023/09/11 03:02:21;;;;;;;0.10;0.10;;;;;;;21.24;63.49;100455.06;7361550;19;20037;-60
2023/09/11 03:04:49;;;;;;;0.10;0.10;;;;;;;21.14;63.46;100430.13;7362705;19;20006;-60
2023/09/11 03:07:17;;;;;;;0.10;0.10;;;;;;;21.21;63.44;100447.31;7367041;19;20486;-59
2023/09/11 03:09:43;;;;;;;0.10;0.10;;;;;;;21.20;63.81;100450.94;7365864;19;20017;-61
2023/09/11 03:12:09;;;;;;;0.10;0.10;;;;;;;21.18;63.33;100443.03;7363916;19;20033;-59
2023/09/11 03:14:34;;;;;;;0.10;0.10;;;;;;;21.07;63.79;100424.38;7364606;19;20053;-60
2023/09/11 03:17:00;;;;;;;0.10;0.10;;;;;;;21.04;63.69;100429.06;7365054;19;20007;-61
2023/09/11 03:19:26;;;;;;;0.10;0.10;;;;;;;21.15;63.80;100443.28;7337047;19;20033;-60
2023/09/11 03:21:53;;;;;;;0.00;0.00;;;;;;;21.13;63.45;100439.03;7358831;19;20010;-60
2023/09/11 03:24:19;;;;;;;0.10;0.10;;;;;;;21.12;63.79;100440.81;7362923;19;20843;-60
2023/09/11 03:26:46;;;;;;;0.10;0.10;;;;;;;21.12;63.52;100440.81;7359638;19;20013;-60
2023/09/11 03:29:11;;;;;;;;;;;;;;;21.15;62.12;100442.44;7366064;19;20808;-60
2023/09/11 03:31:37;;;;;;;0.03;0.03;;;;;;;21.09;63.47;100437.56;7360773;19;19915;-60
2023/09/11 03:34:02;;;;;;;0.10;0.10;;;;;;;21.08;63.39;100444.66;7360978;19;20017;-59
2023/09/11 03:36:28;;;;;;;0.10;0.10;;;;;;;21.05;63.81;100446.69;7357040;19;20018;-59
2023/09/11 03:38:53;;;;;;;0.10;0.10;;;;;;;21.04;63.53;100439.69;7364720;19;20022;-60
2023/09/11 03:41:19;;;;;;;0.00;0.00;;;;;;;21.02;63.68;100439.78;7366247;19;20017;-59
2023/09/11 03:43:44;;;;;;;0.10;0.10;;;;;;;21.01;63.99;100437.25;7358203;19;20010;-60
2023/09/11 03:46:12;;;;;;;0.10;0.10;;;;;;;20.99;63.63;100438.22;7373661;19;20010;-61
2023/09/11 03:48:37;;;;;;;0.10;0.10;;;;;;;20.98;63.77;100435.63;7365953;19;20025;-60
2023/09/11 03:51:03;;;;;;;0.10;0.10;;;;;;;20.95;63.69;100439.38;7361209;19;20708;-60
2023/09/11 03:53:28;;;;;;;0.10;0.10;;;;;;;20.95;63.75;100436.72;7362631;19;20018;-60
2023/09/11 03:55:54;;;;;;;0.00;0.00;;;;;;;20.95;63.66;100436.72;7368492;19;20355;-59
2023/09/11 03:58:19;;;;;;;0.10;0.10;;;;;;;20.94;63.93;100439.50;7369507;19;20029;-60
2023/09/11 04:00:44;;;;;;;0.10;0.10;;;;;;;20.91;63.47;100437.88;7369789;19;20396;-60
2023/09/11 04:03:10;;;;;;;0.10;0.10;;;;;;;20.94;63.84;100439.50;7361493;19;20010;-60
2023/09/11 04:05:35;;;;;;;0.10;0.10;;;;;;;20.93;63.85;100443.06;7371891;19;20002;-59
2023/09/11 04:08:01;;;;;;;0.10;0.10;;;;;;;20.92;63.93;100441.38;7373712;19;20411;-59
2023/09/11 04:10:27;;;;;;;0.00;0.00;;;;;;;20.91;63.78;100450.31;7372250;19;20066;-59
2023/09/11 04:12:52;;;;;;;0.10;0.10;;;;;;;20.90;64.05;100449.47;7370228;19;20113;-60
2023/09/11 04:15:17;;;;;;;0.10;0.10;;;;;;;20.88;63.95;100450.50;7372084;19;20702;-60
2023/09/11 04:17:43;;;;;;;0.10;0.10;;;;;;;20.89;63.79;100446.94;7371481;19;20729;-59
2023/09/11 04:20:09;;;;;;;0.10;0.10;;;;;;;20.87;63.67;100449.66;7371689;19;20010;-60
2023/09/11 04:22:35;;;;;;;0.10;0.10;;;;;;;20.87;63.73;100449.66;7372749;19;20102;-60
2023/09/11 04:25:00;;;;;;;0.10;0.10;;;;;;;20.81;64.27;100439.47;7371299;19;20098;-60
2023/09/11 04:27:26;;;;;;;0.10;0.10;;;;;;;20.83;63.70;100442.88;7368542;19;19998;-60
2023/09/11 04:29:51;;;;;;;0.10;0.10;;;;;;;20.83;63.93;100445.50;7366447;19;20031;-59
2023/09/11 04:32:18;;;;;;;0.10;0.10;;;;;;;20.73;64.08;100425.88;7372497;19;20025;-60
2023/09/11 04:34:43;;;;;;;0.08;0.08;;;;;;;20.81;64.30;100439.47;7367585;19;20006;-60
2023/09/11 04:37:09;;;;;;;0.03;0.03;;;;;;;20.79;64.20;100436.09;7374405;19;20021;-60
2023/09/11 04:39:34;;;;;;;0.10;0.10;;;;;;;20.79;64.16;100440.56;7371786;19;20021;-61
2023/09/11 04:42:00;;;;;;;0.10;0.10;;;;;;;20.77;63.91;100435.34;7372420;19;20034;-59
2023/09/11 04:44:25;;;;;;;0.00;0.00;;;;;;;20.76;64.32;100446.91;7369467;19;20010;-61
2023/09/11 04:46:50;;;;;;;0.00;0.00;;;;;;;20.75;64.16;100445.22;7369943;19;20456;-61
2023/09/11 04:49:16;;;;;;;0.10;0.10;;;;;;;20.74;64.10;100454.13;7367626;19;20070;-60
2023/09/11 04:51:41;;;;;;;0.10;0.10;;;;;;;20.73;64.20;100452.41;7364312;19;20007;-60
2023/09/11 04:54:07;;;;;;;0.10;0.10;;;;;;;20.73;63.95;100457.72;7371063;19;20704;-59
2023/09/11 04:56:32;;;;;;;0.10;0.10;;;;;;;20.71;63.94;100454.34;7371221;19;20003;-61
2023/09/11 04:58:57;;;;;;;0.10;0.10;;;;;;;20.73;63.84;100463.03;7370890;19;20109;-60
2023/09/11 05:01:23;;;;;;;0.10;0.10;;;;;;;20.70;64.00;100463.25;7367413;19;20034;-59
2023/09/11 05:03:48;;;;;;;0.00;0.00;;;;;;;20.66;64.13;100461.78;7366014;19;20003;-60
2023/09/11 05:06:14;;;;;;;0.10;0.10;;;;;;;20.65;64.16;100458.28;7359894;19;20022;-60
2023/09/11 05:08:39;;;;;;;0.10;0.10;;;;;;;20.65;63.78;100462.72;7370621;19;20422;-60
2023/09/11 05:11:05;;;;;;;0.10;0.10;;;;;;;20.64;64.13;100455.72;7361484;19;20665;-60
2023/09/11 05:13:30;;;;;;;0.10;0.10;;;;;;;20.62;63.97;100463.78;7370265;19;20014;-60
2023/09/11 05:15:55;;;;;;;0.00;0.00;;;;;;;20.61;63.59;100469.19;7366623;19;20429;-60
2023/09/11 05:18:21;;;;;;;0.10;0.10;;;;;;;20.49;63.60;100449.66;7370314;19;20002;-60
2023/09/11 05:20:50;;;;;;;0.10;0.10;;;;;;;20.55;63.40;100451.03;7377026;19;20496;-61
2023/09/11 05:23:16;;;;;;;0.00;0.00;;;;;;;20.57;63.32;100467.69;7372685;19;20496;-60
2023/09/11 05:25:41;;;;;;;0.10;0.10;;;;;;;20.50;62.64;100461.97;7365559;19;20010;-60
2023/09/11 05:28:07;;;;;;;0.10;0.10;;;;;;;20.53;62.96;100471.50;7367538;19;20595;-60
2023/09/11 05:30:32;;;;;;;0.08;0.08;;;;;;;20.51;62.71;100479.56;7368986;19;20081;-61
2023/09/11 05:32:58;;;;;;;0.10;0.10;;;;;;;20.49;62.73;100484.16;7368110;19;20334;-60
2023/09/11 05:35:23;;;;;;;0.10;0.10;;;;;;;20.46;62.49;100486.97;7370331;19;20007;-61
2023/09/11 05:37:49;;;;;;;0.10;0.10;;;;;;;20.45;62.39;100487.91;7365074;19;20023;-60
2023/09/11 05:40:14;;;;;;;0.10;0.10;;;;;;;20.44;62.11;100499.50;7370265;19;20074;-59
2023/09/11 05:42:39;;;;;;;0.10;0.10;;;;;;;20.41;61.67;100489.91;7365915;19;20943;-60
2023/09/11 05:45:06;;;;;;;0.10;0.10;;;;;;;20.39;62.25;100497.13;7368337;19;20014;-60
2023/09/11 05:47:32;;;;;;;0.03;0.03;;;;;;;20.37;62.03;100499.03;7366789;19;21128;-60
2023/09/11 05:50:00;;;;;;;0.05;0.05;;;;;;;20.34;62.21;100496.59;7366298;19;20031;-60
2023/09/11 05:52:26;;;;;;;0.10;0.10;;;;;;;20.33;61.82;100502.88;7363331;19;20018;-60
2023/09/11 05:54:52;;;;;;;0.00;0.00;;;;;;;20.32;62.03;100500.28;7367173;19;20035;-60
2023/09/11 05:57:17;;;;;;;0.10;0.10;;;;;;;20.30;61.95;100503.06;7370267;19;20411;-61
2023/09/11 05:59:43;;;;;;;0.08;0.08;;;;;;;20.26;61.80;100498.91;7363138;19;20999;-60
2023/09/11 06:02:08;;;;;;;0.10;0.10;;;;;;;20.29;61.58;100511.97;7366110;19;20390;-59
2023/09/11 06:04:34;;;;;;;0.10;0.10;;;;;;;20.28;61.76;100510.28;7368427;19;20003;-59
2023/09/11 06:06:59;;;;;;;0.10;0.10;;;;;;;20.26;61.31;100512.16;7365510;19;20013;-60
2023/09/11 06:09:24;;;;;;;0.10;0.10;;;;;;;20.25;61.59;100504.31;7366996;19;20621;-59
2023/09/11 06:11:52;;;;;;;0.10;0.10;;;;;;;20.24;61.32;100506.13;7365981;19;20011;-59
2023/09/11 06:14:17;;;;;;;;;;;;;;;20.28;60.97;100507.63;7366393;19;20010;-60
2023/09/11 06:16:42;;;;;;;0.10;0.10;;;;;;;20.23;61.37;100507.06;7367872;19;19932;-61
2023/09/11 06:19:08;;;;;;;0.10;0.10;;;;;;;20.21;61.12;100511.59;7363534;19;20461;-60
2023/09/11 06:21:33;;;;;;;0.05;0.05;;;;;;;20.20;61.23;100509.91;7367520;19;20098;-60
2023/09/11 06:23:59;;;;;;;0.10;0.10;;;;;;;20.19;61.07;100510.88;7363160;19;20512;-60
2023/09/11 06:26:24;;;;;;;0.10;0.10;;;;;;;20.19;61.32;100518.81;7364688;19;20010;-59
2023/09/11 06:28:50;;;;;;;0.10;0.10;;;;;;;20.18;61.14;100517.97;7364063;19;20013;-60
2023/09/11 06:31:16;;;;;;;0.05;0.05;;;;;;;20.19;61.55;100527.63;7366168;19;20050;-60
2023/09/11 06:33:43;;;;;;;0.10;0.10;;;;;;;20.20;61.40;100533.78;7360681;19;20006;-60
2023/09/11 06:36:09;;;;;;;0.00;0.00;;;;;;;20.20;61.22;100533.78;7373565;19;20413;-60
2023/09/11 06:38:34;;;;;;;0.10;0.10;;;;;;;20.20;60.85;100533.78;7374373;19;20081;-60
2023/09/11 06:40:59;;;;;;;0.10;0.10;;;;;;;20.21;61.04;100536.31;7369644;19;20987;-60
2023/09/11 06:43:25;;;;;;;0.10;0.10;;;;;;;20.22;61.05;100534.50;7363888;19;21211;-60
2023/09/11 06:45:52;;;;;;;0.10;0.10;;;;;;;20.21;60.81;100533.66;7365093;19;20006;-59
2023/09/11 06:48:17;;;;;;;0.00;0.00;;;;;;;20.21;60.67;100540.78;7364640;19;20532;-60
2023/09/11 06:50:43;;;;;;;0.08;0.08;;;;;;;20.20;60.72;100544.38;7360702;19;20085;-60
2023/09/11 06:53:09;;;;;;;0.08;0.08;;;;;;;20.22;60.88;100542.47;7364199;19;20003;-60
2023/09/11 06:55:35;;;;;;;0.03;0.03;;;;;;;20.18;60.58;100541.00;7364689;19;20391;-61
2023/09/11 06:58:02;;;;;;;0.10;0.10;;;;;;;20.20;60.84;100552.34;7363366;19;20033;-60
2023/09/11 07:00:28;;;;;;;0.10;0.10;;;;;;;20.18;60.58;100552.44;7364097;19;20041;-60
2023/09/11 07:02:54;;;;;;;0.10;0.10;;;;;;;20.19;60.92;100555.94;7358517;19;20029;-60
2023/09/11 07:05:20;;;;;;;0.10;0.10;;;;;;;20.18;60.72;100559.56;7358205;19;20017;-60
2023/09/11 07:07:46;;;;;;;0.10;0.10;;;;;;;20.18;61.02;100548.94;7365892;19;20011;-60
2023/09/11 07:10:15;;;;;;;0.10;0.10;;;;;;;20.17;61.06;100550.75;7369367;19;20521;-60
2023/09/11 07:12:43;;;;;;;0.10;0.10;;;;;;;20.18;60.92;100554.25;7367057;19;20031;-60
2023/09/11 07:15:09;;;;;;;0.10;0.10;;;;;;;20.19;60.67;100558.59;7361787;19;20588;-60
2023/09/11 07:17:35;;;;;;;0.10;0.10;;;;;;;20.18;60.57;100562.22;7365163;19;20027;-60
2023/09/11 07:20:04;;;;;;;0.10;0.10;;;;;;;20.18;60.77;100557.75;7365419;19;20010;-60
2023/09/11 07:22:30;;;;;;;0.10;0.10;;;;;;;20.19;61.05;100553.28;7354791;19;20026;-60
2023/09/11 07:24:56;;;;;;;0.00;0.00;;;;;;;20.24;60.60;100567.09;7365464;19;20422;-61
2023/09/11 07:27:22;;;;;;;0.10;0.10;;;;;;;20.25;60.40;100567.94;7365090;19;20008;-60
2023/09/11 07:29:49;;;;;;;0.10;0.10;;;;;;;20.28;60.86;100573.91;7363968;19;20006;-59
2023/09/11 07:32:15;;;;;;;0.00;0.00;;;;;;;20.18;60.71;100556.91;7362823;19;20349;-58
2023/09/11 07:34:42;;;;;;;0.10;0.10;;;;;;;20.31;60.69;100571.03;7365787;19;20011;-60
2023/09/11 07:37:07;;;;;;;0.10;0.10;;;;;;;20.33;60.58;100566.50;7363312;19;20015;-60
2023/09/11 07:39:33;;;;;;;0.00;0.00;;;;;;;20.35;60.66;100569.91;7344232;19;20046;-60
2023/09/11 07:41:59;;;;;;;0.10;0.10;;;;;;;20.38;60.58;100574.16;7367828;19;20480;-59
2023/09/11 07:44:24;;;;;;;0.10;0.10;;;;;;;20.38;60.38;100584.78;7358685;19;20006;-60
2023/09/11 07:46:49;;;;;;;0.10;0.10;;;;;;;20.41;60.24;100580.09;7359701;19;20011;-59
2023/09/11 07:49:15;;;;;;;0.10;0.10;;;;;;;20.42;60.26;100581.78;7363858;19;20006;-60
2023/09/11 07:51:40;;;;;;;0.00;0.00;;;;;;;20.43;60.18;100578.22;7357676;19;20015;-59
2023/09/11 07:54:06;;;;;;;0.10;0.10;;;;;;;20.43;60.42;100577.38;7363262;19;20013;-59
2023/09/11 07:56:33;;;;;;;0.00;0.00;;;;;;;20.45;60.34;100576.31;7363635;19;20034;-60
2023/09/11 07:58:58;;;;;;;0.10;0.10;;;;;;;20.45;60.10;100573.66;7339944;19;20894;-59
2023/09/11 08:01:25;;;;;;;0.10;0.10;;;;;;;20.47;60.01;100573.56;7358055;19;20062;-60
2023/09/11 08:03:51;;;;;;;0.00;0.00;;;;;;;20.47;60.15;100577.06;7362374;19;20819;-61
2023/09/11 08:06:16;;;;;;;0.10;0.10;;;;;;;20.36;60.03;100560.13;7360436;19;20018;-60
2023/09/11 08:08:42;;;;;;;0.10;0.10;;;;;;;20.48;59.93;100575.28;7362291;19;20022;-60
2023/09/11 08:11:15;;;;;;;0.10;0.10;;;;;;;20.51;60.01;100571.56;7361324;19;20025;-60
2023/09/11 08:13:49;;;;;;;0.10;0.10;;;;;;;20.49;59.86;100576.16;7360325;19;20024;-61
2023/09/11 08:16:16;;;;;;;0.10;0.10;;;;;;;20.49;59.95;100576.16;7363662;19;20086;-60
2023/09/11 08:18:42;;;;;;;0.00;0.00;;;;;;;20.46;59.91;100572.72;7367720;19;20010;-60
2023/09/11 08:21:08;;;;;;;0.10;0.10;;;;;;;20.50;59.72;100575.19;7362688;19;20603;-59
2023/09/11 08:23:33;;;;;;;0.10;0.10;;;;;;;20.51;59.76;100568.91;7362398;19;20391;-59
2023/09/11 08:26:01;;;;;;;0.08;0.08;;;;;;;20.53;60.08;100577.63;7369049;19;20015;-60
2023/09/11 08:28:27;;;;;;;0.10;0.10;;;;;;;20.42;59.56;100554.44;7361816;19;20090;-60
2023/09/11 08:30:53;;;;;;;0.10;0.10;;;;;;;20.56;59.80;100578.28;7364566;19;20078;-60
2023/09/11 08:33:21;;;;;;;0.10;0.10;;;;;;;20.58;59.56;100575.50;7361096;19;20070;-59
2023/09/11 08:35:48;;;;;;;0.10;0.10;;;;;;;20.61;60.00;100583.28;7363897;19;20116;-60
2023/09/11 08:38:14;;;;;;;0.10;0.10;;;;;;;20.63;59.85;100584.00;7358075;19;20971;-59
2023/09/11 08:40:42;;;;;;;0.00;0.00;;;;;;;20.66;59.68;100589.13;7359168;19;20010;-59
2023/09/11 08:43:07;;;;;;;0.10;0.10;;;;;;;20.68;59.81;100592.53;7364056;19;20690;-59
2023/09/11 08:45:33;;;;;;;0.10;0.10;;;;;;;20.69;59.83;100592.44;7369939;19;20017;-61
2023/09/11 08:47:58;;;;;;;0.10;0.10;;;;;;;20.68;59.82;100592.53;7364554;19;20022;-60
2023/09/11 08:50:30;;;;;;;0.10;0.10;;;;;;;20.78;59.84;100593.59;7370802;19;20573;-60
2023/09/11 08:52:57;;;;;;;0.10;0.10;;;;;;;20.77;59.94;100591.91;7373722;19;20089;-60
2023/09/11 08:55:24;;;;;;;0.10;0.10;;;;;;;20.75;59.65;100588.53;7377283;19;20014;-59
2023/09/11 08:57:50;;;;;;;0.10;0.10;;;;;;;20.82;59.86;100589.78;7374506;19;20006;-61
2023/09/11 09:00:17;;;;;;;0.10;0.10;;;;;;;20.85;59.87;100602.88;7370398;19;20033;-60
2023/09/11 09:02:43;;;;;;;0.10;0.10;;;;;;;20.88;59.39;100600.03;7366565;19;20106;-60
2023/09/11 09:05:09;;;;;;;0.10;0.10;;;;;;;20.91;59.52;100596.31;7361063;19;20022;-61
2023/09/11 09:07:35;;;;;;;0.00;0.00;;;;;;;20.93;59.47;100592.59;7365621;19;20025;-59
2023/09/11 09:10:05;;;;;;;0.10;0.10;;;;;;;20.99;59.48;100592.19;7365936;19;20952;-59
2023/09/11 09:12:33;;;;;;;0.10;0.10;;;;;;;21.00;59.58;100590.38;7367590;19;20614;-60
2023/09/11 09:15:00;;;;;;;0.10;0.10;;;;;;;20.98;59.64;100595.81;7368298;19;20011;-60
2023/09/11 09:17:25;;;;;;;0.10;0.10;;;;;;;21.04;59.52;100594.53;7370414;19;21008;-60
2023/09/11 09:19:51;;;;;;;0.10;0.10;;;;;;;21.08;59.14;100595.16;7366986;19;20082;-60
2023/09/11 09:22:17;;;;;;;0.10;0.10;;;;;;;21.12;59.63;100594.00;7368677;19;20021;-58
2023/09/11 09:24:53;;;;;;;0.10;0.10;;;;;;;21.21;59.68;100596.03;7363162;19;20021;-58
2023/09/11 09:27:21;;;;;;;0.10;0.10;;;;;;;21.19;59.67;100603.25;7367768;19;20014;-60
2023/09/11 09:29:48;;;;;;;0.10;0.10;;;;;;;21.22;59.47;100603.03;7371022;19;20383;-59
2023/09/11 09:32:14;;;;;;;0.00;0.00;;;;;;;21.24;59.29;100599.31;7367464;19;20019;-60
2023/09/11 09:34:49;;;;;;;0.00;0.00;;;;;;;21.34;59.15;100607.53;7365564;19;20015;-60
2023/09/11 09:37:19;;;;;;;0.10;0.10;;;;;;;21.35;59.45;100614.56;7369787;19;20084;-60
2023/09/11 09:39:48;;;;;;;0.10;0.10;;;;;;;21.36;58.99;100610.09;7369625;19;20765;-60
2023/09/11 09:42:13;;;;;;;0.10;0.10;;;;;;;21.39;58.96;100605.41;7366775;19;20027;-60
2023/09/11 09:44:41;;;;;;;0.10;0.10;;;;;;;21.42;58.71;100601.69;7361046;19;20011;-59
2023/09/11 09:47:10;;;;;;;0.10;0.10;;;;;;;21.42;59.08;100602.53;7368651;19;20037;-59
2023/09/11 09:49:44;;;;;;;0.10;0.10;;;;;;;21.46;58.98;100600.53;7366809;19;20020;-59
2023/09/11 09:52:10;;;;;;;0.08;0.08;;;;;;;21.41;58.63;100603.50;7373509;19;20006;-60
2023/09/11 09:54:45;;;;;;;0.10;0.10;;;;;;;21.48;58.41;100599.44;7359165;19;20033;-60
2023/09/11 09:57:13;;;;;;;0.00;0.00;;;;;;;21.47;58.38;100597.75;7370291;19;20935;-60
2023/09/11 09:59:40;;;;;;;0.10;0.10;;;;;;;21.38;58.66;100582.44;7367653;19;20015;-60
2023/09/11 10:02:10;;;;;;;0.00;0.00;;;;;;;21.50;58.62;100602.00;7367068;19;20021;-60
2023/09/11 10:04:36;;;;;;;0.10;0.10;;;;;;;21.49;58.75;100600.28;7367708;19;20027;-60
2023/09/11 10:07:02;;;;;;;0.10;0.10;;;;;;;21.35;58.67;100581.81;7366084;19;20022;-59
2023/09/11 10:09:27;;;;;;;0.10;0.10;;;;;;;21.52;58.75;100605.41;7366065;19;20354;-61
2023/09/11 10:11:52;;;;;;;0.10;0.10;;;;;;;21.45;58.38;100591.72;7363952;19;20038;-61
2023/09/11 10:14:19;;;;;;;0.10;0.10;;;;;;;21.54;58.34;100608.78;7368199;19;20482;-60
2023/09/11 10:16:47;;;;;;;0.10;0.10;;;;;;;21.57;58.89;100613.06;7368178;19;20022;-61
2023/09/11 10:19:12;;;;;;;0.10;0.10;;;;;;;21.43;58.73;100596.25;7363591;19;20017;-60
2023/09/11 10:21:38;;;;;;;0.10;0.10;;;;;;;21.53;58.89;100608.91;7367231;19;20022;-58
2023/09/11 10:24:05;;;;;;;0.10;0.10;;;;;;;21.46;58.92;100600.53;7360260;19;20010;-61
2023/09/11 10:26:56;;;;;;;0.10;0.10;;;;;;;21.62;58.85;100617.09;7370733;19;20010;-60
2023/09/11 10:29:28;;;;;;;0.10;0.10;;;;;;;21.60;58.73;100610.19;7369867;19;20786;-60
2023/09/11 10:32:07;;;;;;;0.10;0.10;;;;;;;21.62;58.93;100610.91;7368252;19;20049;-61
2023/09/11 10:34:32;;;;;;;0.10;0.10;;;;;;;21.54;58.78;100607.94;7366944;19;20011;-59
2023/09/11 10:36:58;;;;;;;0.10;0.10;;;;;;;21.55;58.45;100610.50;7364566;19;20042;-61
2023/09/11 10:39:25;;;;;;;0.10;0.10;;;;;;;21.53;59.00;100612.41;7363253;19;20117;-60
2023/09/11 10:41:51;;;;;;;0.00;0.00;;;;;;;21.52;59.25;100610.72;7364660;19;20543;-59
2023/09/11 10:44:16;;;;;;;0.08;0.08;;;;;;;21.53;59.14;100606.25;7365698;19;21035;-60
2023/09/11 10:46:48;;;;;;;0.10;0.10;;;;;;;21.59;59.32;100611.13;7367107;19;20496;-60
2023/09/11 10:49:19;;;;;;;0.10;0.10;;;;;;;21.60;59.09;100612.84;7362832;19;20006;-59
2023/09/11 10:51:47;;;;;;;0.10;0.10;;;;;;;21.61;59.56;100611.88;7370809;19;20038;-60
2023/09/11 10:54:13;;;;;;;;;;;;;;;21.69;59.11;100612.19;7360059;19;20017;-60
2023/09/11 10:56:39;;;;;;;0.10;0.10;;;;;;;21.65;59.36;100616.03;7366105;19;19932;-58
2023/09/11 10:59:05;;;;;;;0.10;0.10;;;;;;;21.67;59.51;100611.44;7365451;19;20003;-59
2023/09/11 11:01:32;;;;;;;0.10;0.10;;;;;;;21.56;59.04;100595.41;7367750;19;20011;-61
2023/09/11 11:04:02;;;;;;;0.10;0.10;;;;;;;21.68;59.15;100615.81;7361169;19;20665;-60
2023/09/11 11:06:29;;;;;;;0.10;0.10;;;;;;;21.66;59.79;100612.41;7364420;19;20022;-60
2023/09/11 11:08:55;;;;;;;0.00;0.00;;;;;;;21.63;59.72;100617.94;7359449;19;20397;-61
2023/09/11 11:11:29;;;;;;;0.10;0.10;;;;;;;21.65;59.84;100618.69;7364000;19;20015;-61
2023/09/11 11:14:18;;;;;;;0.10;0.10;;;;;;;21.67;59.16;100616.75;7365446;19;20010;-59
2023/09/11 11:17:03;;;;;;;0.10;0.10;;;;;;;21.66;59.20;100615.06;7363672;19;20033;-60
2023/09/11 11:19:34;;;;;;;0.00;0.00;;;;;;;21.62;59.56;100610.91;7365191;19;20006;-58
2023/09/11 11:22:01;;;;;;;0.10;0.10;;;;;;;21.59;60.14;100621.75;7374016;19;20636;-60
2023/09/11 11:24:30;;;;;;;0.00;0.00;;;;;;;21.62;59.93;100626.88;7367577;19;20006;-61